createdAt,value
2022-10-23T00:01:40.014Z,15.82
2022-10-23T00:04:16.365Z,14.50
2022-10-23T00:06:44.439Z,13.70
2022-10-23T00:09:13.965Z,13.73
2022-10-23T00:11:42.149Z,13.18
2022-10-23T00:14:09.583Z,12.85
2022-10-23T00:16:36.939Z,14.00
2022-10-23T00:19:04.528Z,14.55
2022-10-23T00:21:31.482Z,14.93
2022-10-23T00:23:58.388Z,13.70
2022-10-23T00:26:25.367Z,14.35
2022-10-23T00:28:54.364Z,14.48
2022-10-23T00:31:24.307Z,14.48
2022-10-23T00:33:52.404Z,15.95
2022-10-23T00:36:21.324Z,16.55
2022-10-23T00:38:49.511Z,16.02
2022-10-23T00:41:32.233Z,15.85
2022-10-23T00:44:28.063Z,15.07
2022-10-23T00:46:55.488Z,15.73
2022-10-23T00:49:25.745Z,17.20
2022-10-23T00:51:57.652Z,16.88
2022-10-23T00:54:30.002Z,16.15
2022-10-23T00:57:00.085Z,15.52
2022-10-23T00:59:28.941Z,16.15
2022-10-23T01:01:56.610Z,16.63
2022-10-23T01:04:24.120Z,16.80
2022-10-23T01:07:17.762Z,18.05
2022-10-23T01:10:48.462Z,17.15
2022-10-23T01:14:00.154Z,16.70
2022-10-23T01:16:53.504Z,14.30
2022-10-23T01:19:51.439Z,16.35
2022-10-23T01:22:57.539Z,16.63
2022-10-23T01:26:07.926Z,15.02
2022-10-23T01:28:48.628Z,14.77
2022-10-23T01:31:26.103Z,15.07
2022-10-23T01:34:01.136Z,14.43
2022-10-23T01:36:30.904Z,14.40
2022-10-23T01:41:44.457Z,14.05
2022-10-23T01:44:24.017Z,14.45
2022-10-23T01:46:53.260Z,13.30
2022-10-23T01:49:23.294Z,15.07
2022-10-23T01:52:02.643Z,14.85
2022-10-23T01:54:34.310Z,13.93
2022-10-23T01:57:03.613Z,14.95
2022-10-23T01:59:42.122Z,13.77
2022-10-23T02:02:12.173Z,13.88
2022-10-23T02:04:56.244Z,14.50
2022-10-23T02:07:23.748Z,14.85
2022-10-23T02:09:50.811Z,14.00
2022-10-23T02:12:58.847Z,15.02
2022-10-23T02:15:37.757Z,14.10
2022-10-23T02:18:35.993Z,14.27
2022-10-23T02:21:15.807Z,14.25
2022-10-23T02:24:01.500Z,14.88
2022-10-23T02:26:44.665Z,15.20
2022-10-23T02:29:25.446Z,14.63
2022-10-23T02:31:52.455Z,15.27
2022-10-23T02:34:19.909Z,16.95
2022-10-23T02:36:46.989Z,14.43
2022-10-23T02:39:14.056Z,17.30
2022-10-23T02:42:09.075Z,18.02
2022-10-23T02:45:04.597Z,16.33
2022-10-23T02:47:48.338Z,17.15
2022-10-23T02:50:56.570Z,15.90
2022-10-23T02:53:46.168Z,15.50
2022-10-23T02:56:52.863Z,16.60
2022-10-23T02:59:36.428Z,18.15
2022-10-23T03:02:26.739Z,17.33
2022-10-23T03:04:56.130Z,18.10
2022-10-23T03:07:25.805Z,18.17
2022-10-23T03:10:02.083Z,18.02
2022-10-23T03:12:30.766Z,19.27
2022-10-23T03:14:59.151Z,19.67
2022-10-23T03:17:26.052Z,18.17
2022-10-23T03:19:56.147Z,17.90
2022-10-23T03:22:23.053Z,18.17
2022-10-23T03:24:50.067Z,16.42
2022-10-23T03:27:17.079Z,17.45
2022-10-23T03:29:44.074Z,17.15
2022-10-23T03:32:11.169Z,18.30
2022-10-23T03:34:38.239Z,15.70
2022-10-23T03:37:05.454Z,15.82
2022-10-23T03:39:32.359Z,16.48
2022-10-23T03:41:59.252Z,17.20
2022-10-23T03:44:28.016Z,18.30
2022-10-23T03:46:58.072Z,16.35
2022-10-23T03:49:24.967Z,17.08
2022-10-23T03:51:52.879Z,16.48
2022-10-23T03:54:26.969Z,16.65
2022-10-23T03:56:57.374Z,17.40
2022-10-23T03:59:26.347Z,18.20
2022-10-23T04:01:53.794Z,17.10
2022-10-23T04:04:20.773Z,17.98
2022-10-23T04:06:48.022Z,17.58
2022-10-23T04:09:15.090Z,18.38
2022-10-23T04:11:44.057Z,18.75
2022-10-23T04:14:14.481Z,18.05
2022-10-23T04:16:41.589Z,17.48
2022-10-23T04:19:09.340Z,17.73
2022-10-23T04:21:36.272Z,17.67
2022-10-23T04:24:03.710Z,17.85
2022-10-23T04:26:30.796Z,18.23
2022-10-23T04:28:57.740Z,17.17
2022-10-23T04:31:24.767Z,17.88
2022-10-23T04:33:51.869Z,16.00
2022-10-23T04:36:30.203Z,16.77
2022-10-23T04:39:04.615Z,15.95
2022-10-23T04:41:31.577Z,16.17
2022-10-23T04:43:58.431Z,17.50
2022-10-23T04:46:25.656Z,17.33
2022-10-23T04:48:52.618Z,18.25
2022-10-23T04:51:22.137Z,16.83
2022-10-23T04:54:01.014Z,17.15
2022-10-23T04:56:42.162Z,17.20
2022-10-23T04:59:14.130Z,18.20
2022-10-23T05:01:42.508Z,17.35
2022-10-23T05:04:10.176Z,16.15
2022-10-23T05:07:00.293Z,16.65
2022-10-23T05:09:47.047Z,15.93
2022-10-23T05:12:26.637Z,16.48
2022-10-23T05:14:54.382Z,16.70
2022-10-23T05:17:29.792Z,16.98
2022-10-23T05:19:59.658Z,17.27
2022-10-23T05:22:32.548Z,16.08
2022-10-23T05:25:01.989Z,16.92
2022-10-23T05:27:31.621Z,16.25
2022-10-23T05:29:58.925Z,16.52
2022-10-23T05:32:31.395Z,15.98
2022-10-23T05:35:01.625Z,17.10
2022-10-23T05:37:30.838Z,16.13
2022-10-23T05:40:07.429Z,16.70
2022-10-23T05:42:39.467Z,16.55
2022-10-23T05:45:09.244Z,16.58
2022-10-23T05:48:11.348Z,16.17
2022-10-23T05:51:11.949Z,16.40
2022-10-23T05:54:02.022Z,16.60
2022-10-23T05:56:41.642Z,23.13
2022-10-23T05:59:20.431Z,21.98
2022-10-23T06:01:59.391Z,20.15
2022-10-23T06:04:39.250Z,16.65
2022-10-23T06:07:35.921Z,17.45
2022-10-23T06:10:06.234Z,14.95
2022-10-23T06:12:36.273Z,14.98
2022-10-23T06:15:04.524Z,15.77
2022-10-23T06:17:52.667Z,14.23
2022-10-23T06:20:23.066Z,15.68
2022-10-23T06:23:01.528Z,13.35
2022-10-23T06:25:53.554Z,13.00
2022-10-23T06:28:25.636Z,14.07
2022-10-23T06:30:52.817Z,12.57
2022-10-23T06:33:20.178Z,12.75
2022-10-23T06:35:47.905Z,11.95
2022-10-23T06:38:15.378Z,13.30
2022-10-23T06:40:56.661Z,12.65
2022-10-23T06:43:31.633Z,12.57
2022-10-23T06:46:15.396Z,15.52
2022-10-23T06:49:00.646Z,16.42
2022-10-23T06:51:31.881Z,16.85
2022-10-23T06:53:58.754Z,16.88
2022-10-23T06:56:57.289Z,15.38
2022-10-23T06:59:34.224Z,14.90
2022-10-23T07:02:01.301Z,15.02
2022-10-23T07:04:28.366Z,15.23
2022-10-23T07:07:00.176Z,15.50
2022-10-23T07:09:36.374Z,13.07
2022-10-23T07:12:18.467Z,13.80
2022-10-23T07:14:51.241Z,14.32
2022-10-23T07:17:18.206Z,16.10
2022-10-23T07:19:46.991Z,14.77
2022-10-23T07:22:16.161Z,14.45
2022-10-23T07:25:09.639Z,14.18
2022-10-23T07:27:39.153Z,13.70
2022-10-23T07:30:09.613Z,12.90
2022-10-23T07:32:45.792Z,13.23
2022-10-23T07:35:33.095Z,12.60
2022-10-23T07:38:09.251Z,14.10
2022-10-23T07:40:41.950Z,12.02
2022-10-23T07:43:10.689Z,12.55
2022-10-23T07:45:37.655Z,11.88
2022-10-23T07:48:14.250Z,13.40
2022-10-23T07:51:08.495Z,13.98
2022-10-23T07:53:40.216Z,12.20
2022-10-23T07:56:29.835Z,10.98
2022-10-23T07:59:13.779Z,12.32
2022-10-23T08:01:43.749Z,11.98
2022-10-23T08:04:10.926Z,12.48
2022-10-23T08:06:45.903Z,11.70
2022-10-23T08:09:12.860Z,12.43
2022-10-23T08:11:42.420Z,11.65
2022-10-23T08:14:11.603Z,12.95
2022-10-23T08:16:42.317Z,12.32
2022-10-23T08:19:29.184Z,11.50
2022-10-23T08:21:57.317Z,10.95
2022-10-23T08:24:24.282Z,11.63
2022-10-23T08:26:51.723Z,11.00
2022-10-23T08:29:22.464Z,10.80
2022-10-23T08:31:53.304Z,10.23
2022-10-23T08:34:31.469Z,10.98
2022-10-23T08:37:00.530Z,10.65
2022-10-23T08:39:27.972Z,10.98
2022-10-23T08:42:26.111Z,11.75
2022-10-23T08:45:30.832Z,11.88
2022-10-23T08:48:21.041Z,12.90
2022-10-23T08:51:44.034Z,13.32
2022-10-23T08:54:17.169Z,14.20
2022-10-23T08:56:52.422Z,12.65
2022-10-23T08:59:38.015Z,10.52
2022-10-23T09:02:26.792Z,14.05
2022-10-23T09:04:56.582Z,13.70
2022-10-23T09:07:56.321Z,12.23
2022-10-23T09:10:48.097Z,12.63
2022-10-23T09:13:55.790Z,11.15
2022-10-23T09:17:00.288Z,10.70
2022-10-23T09:19:29.420Z,11.73
2022-10-23T09:21:57.587Z,12.73
2022-10-23T09:24:28.450Z,11.25
2022-10-23T09:26:55.423Z,11.45
2022-10-23T09:29:27.096Z,16.35
2022-10-23T09:32:00.306Z,14.13
2022-10-23T09:34:30.635Z,11.25
2022-10-23T09:37:02.144Z,11.95
2022-10-23T09:39:36.754Z,11.57
2022-10-23T09:42:26.140Z,11.43
2022-10-23T09:44:55.537Z,11.85
2022-10-23T09:47:25.317Z,12.32
2022-10-23T09:49:56.475Z,12.18
2022-10-23T09:52:45.448Z,13.25
2022-10-23T09:55:30.686Z,14.23
2022-10-23T09:57:57.819Z,11.10
2022-10-23T10:00:27.559Z,11.25
2022-10-23T10:02:57.507Z,12.05
2022-10-23T10:05:44.521Z,11.75
2022-10-23T10:08:48.675Z,10.75
2022-10-23T10:11:33.717Z,11.20
2022-10-23T10:14:50.005Z,10.27
2022-10-23T10:17:36.421Z,11.20
2022-10-23T10:20:20.810Z,9.30
2022-10-23T10:23:23.330Z,9.18
2022-10-23T10:26:12.839Z,9.75
2022-10-23T10:29:16.490Z,9.63
2022-10-23T10:32:27.370Z,10.02
2022-10-23T10:35:22.542Z,8.98
2022-10-23T10:38:20.939Z,8.10
2022-10-23T10:41:28.888Z,8.30
2022-10-23T10:44:17.441Z,7.47
2022-10-23T10:46:53.108Z,7.45
2022-10-23T10:49:27.614Z,7.25
2022-10-23T10:52:17.927Z,8.05
2022-10-23T10:55:28.689Z,9.00
2022-10-23T10:58:06.108Z,7.05
2022-10-23T11:00:34.266Z,8.05
2022-10-23T11:03:28.148Z,7.43
2022-10-23T11:08:49.868Z,7.80
2022-10-23T11:11:36.507Z,7.18
2022-10-23T11:14:03.599Z,8.35
2022-10-23T11:16:36.098Z,8.20
2022-10-23T11:19:22.768Z,9.93
2022-10-23T11:22:19.499Z,9.35
2022-10-23T11:25:22.324Z,9.48
2022-10-23T11:28:26.197Z,9.20
2022-10-23T11:31:57.392Z,9.60
2022-10-23T11:35:07.012Z,10.13
2022-10-23T11:37:34.141Z,9.98
2022-10-23T11:40:06.939Z,8.45
2022-10-23T11:42:47.906Z,8.55
2022-10-23T11:45:40.765Z,9.55
2022-10-23T11:48:36.408Z,8.73
2022-10-23T11:51:05.298Z,8.98
2022-10-23T11:53:32.204Z,8.13
2022-10-23T11:56:12.592Z,7.50
2022-10-23T11:58:56.844Z,7.97
2022-10-23T12:01:43.008Z,8.43
2022-10-23T12:04:12.836Z,8.57
2022-10-23T12:07:01.774Z,8.27
2022-10-23T12:09:44.669Z,8.85
2022-10-23T12:12:11.420Z,8.32
2022-10-23T12:14:45.850Z,7.90
2022-10-23T12:17:30.630Z,7.78
2022-10-23T12:20:12.748Z,8.75
2022-10-23T12:22:56.776Z,8.48
2022-10-23T12:25:55.463Z,8.38
2022-10-23T12:28:42.951Z,10.45
2022-10-23T12:31:48.162Z,8.45
2022-10-23T12:34:45.409Z,8.55
2022-10-23T12:38:01.773Z,8.55
2022-10-23T12:40:30.261Z,8.40
2022-10-23T12:43:00.558Z,8.90
2022-10-23T12:45:32.079Z,9.45
2022-10-23T12:47:59.973Z,10.07
2022-10-23T12:50:29.508Z,9.20
2022-10-23T12:53:21.618Z,9.30
2022-10-23T12:58:32.111Z,10.30
2022-10-23T13:01:06.230Z,9.57
2022-10-23T13:03:34.372Z,9.73
2022-10-23T13:06:03.244Z,9.93
2022-10-23T13:08:40.692Z,9.80
2022-10-23T13:11:30.138Z,10.48
2022-10-23T13:14:01.730Z,10.05
2022-10-23T13:16:28.728Z,9.52
2022-10-23T13:18:55.643Z,9.60
2022-10-23T13:21:26.624Z,8.93
2022-10-23T13:23:54.300Z,9.88
2022-10-23T13:26:45.265Z,9.45
2022-10-23T13:31:53.099Z,10.60
2022-10-23T13:34:28.350Z,10.57
2022-10-23T13:37:27.807Z,10.00
2022-10-23T13:40:10.204Z,11.25
2022-10-23T13:42:37.216Z,10.80
2022-10-23T13:45:05.940Z,12.55
2022-10-23T13:47:32.824Z,14.93
2022-10-23T13:49:59.683Z,12.18
2022-10-23T13:52:26.625Z,11.23
2022-10-23T13:54:53.540Z,12.15
2022-10-23T13:57:20.451Z,11.95
2022-10-23T13:59:47.417Z,11.38
2022-10-23T14:02:21.483Z,11.18
2022-10-23T14:04:50.424Z,11.25
2022-10-23T14:07:17.599Z,11.57
2022-10-23T14:09:44.991Z,10.70
2022-10-23T14:12:12.436Z,10.27
2022-10-23T14:14:39.423Z,10.93
2022-10-23T14:17:06.291Z,11.27
2022-10-23T14:19:34.229Z,10.65
2022-10-23T14:22:01.229Z,11.43
2022-10-23T14:24:28.098Z,10.02
2022-10-23T14:26:57.489Z,11.02
2022-10-23T14:29:24.682Z,10.88
2022-10-23T14:31:51.994Z,10.35
2022-10-23T14:34:18.972Z,9.98
2022-10-23T14:36:50.200Z,10.32
2022-10-23T14:39:18.191Z,9.65
2022-10-23T14:41:45.259Z,9.65
2022-10-23T14:44:12.178Z,9.05
2022-10-23T14:46:39.045Z,9.23
2022-10-23T14:49:06.422Z,9.55
2022-10-23T14:51:33.720Z,7.93
2022-10-23T14:54:05.847Z,10.35
2022-10-23T14:56:37.481Z,10.15
2022-10-23T14:59:05.022Z,10.40
2022-10-23T15:01:36.738Z,13.57
2022-10-23T15:04:04.408Z,10.35
2022-10-23T15:06:31.646Z,8.55
2022-10-23T15:08:58.747Z,8.57
2022-10-23T15:11:26.674Z,8.80
2022-10-23T15:13:54.723Z,10.07
2022-10-23T15:16:23.516Z,10.43
2022-10-23T15:18:50.825Z,9.25
2022-10-23T15:21:18.160Z,9.35
2022-10-23T15:23:46.358Z,10.55
2022-10-23T15:26:21.718Z,11.13
2022-10-23T15:28:58.440Z,10.30
2022-10-23T15:31:43.175Z,12.20
2022-10-23T15:34:14.661Z,10.68
2022-10-23T15:36:42.764Z,9.70
2022-10-23T15:39:11.531Z,9.68
2022-10-23T15:41:40.786Z,10.38
2022-10-23T15:44:11.877Z,10.57
2022-10-23T15:46:38.748Z,10.50
2022-10-23T15:49:06.288Z,11.82
2022-10-23T15:51:33.177Z,10.32
2022-10-23T15:54:00.125Z,10.02
2022-10-23T15:56:27.005Z,10.35
2022-10-23T15:58:53.879Z,11.45
2022-10-23T16:01:20.946Z,11.10
2022-10-23T16:03:47.926Z,11.88
2022-10-23T16:06:18.195Z,10.88
2022-10-23T16:08:45.503Z,13.35
2022-10-23T16:11:37.068Z,14.52
2022-10-23T16:14:05.386Z,13.70
2022-10-23T16:16:33.535Z,12.63
2022-10-23T16:19:02.352Z,12.68
2022-10-23T16:21:33.708Z,12.10
2022-10-23T16:24:03.208Z,11.52
2022-10-23T16:26:30.545Z,11.02
2022-10-23T16:29:03.960Z,11.05
2022-10-23T16:31:30.901Z,11.27
2022-10-23T16:34:00.600Z,12.23
2022-10-23T16:36:28.132Z,11.95
2022-10-23T16:39:18.702Z,11.90
2022-10-23T16:42:04.960Z,12.18
2022-10-23T16:44:44.446Z,12.38
2022-10-23T16:47:11.382Z,13.63
2022-10-23T16:49:38.294Z,15.45
2022-10-23T16:52:05.207Z,16.17
2022-10-23T16:54:32.312Z,18.38
2022-10-23T16:56:59.221Z,17.23
2022-10-23T16:59:26.157Z,16.58
2022-10-23T17:01:53.571Z,14.85
2022-10-23T17:04:20.853Z,15.80
2022-10-23T17:06:47.799Z,15.18
2022-10-23T17:09:15.045Z,17.40
2022-10-23T17:11:44.937Z,16.42
2022-10-23T17:14:17.441Z,18.08
2022-10-23T17:16:50.761Z,18.67
2022-10-23T17:22:10.837Z,26.02
2022-10-23T17:24:39.759Z,28.40
2022-10-23T17:27:06.950Z,28.90
2022-10-23T17:29:33.865Z,26.30
2022-10-23T17:32:00.966Z,26.83
2022-10-23T17:34:27.854Z,27.23
2022-10-23T17:36:56.310Z,31.23
2022-10-23T17:39:27.188Z,32.10
2022-10-23T17:41:55.435Z,33.45
2022-10-23T17:44:22.371Z,33.80
2022-10-23T17:46:54.447Z,29.15
2022-10-23T17:49:23.084Z,26.73
2022-10-23T17:51:55.802Z,23.85
2022-10-23T17:54:23.853Z,21.25
2022-10-23T17:56:50.738Z,20.55
2022-10-23T17:59:21.228Z,21.23
2022-10-23T18:01:49.082Z,20.65
2022-10-23T18:04:19.074Z,19.90
2022-10-23T18:06:52.757Z,18.67
2022-10-23T18:09:22.009Z,18.83
2022-10-23T18:11:50.005Z,17.27
2022-10-23T18:14:19.303Z,19.30
2022-10-23T18:16:46.489Z,20.25
2022-10-23T18:19:15.355Z,21.25
2022-10-23T18:21:42.244Z,21.30
2022-10-23T18:24:09.244Z,20.48
2022-10-23T18:26:39.146Z,21.10
2022-10-23T18:29:09.740Z,21.58
2022-10-23T18:31:38.176Z,22.77
2022-10-23T18:34:09.270Z,22.15
2022-10-23T18:36:40.601Z,22.30
2022-10-23T18:39:12.949Z,25.80
2022-10-23T18:41:42.371Z,28.02
2022-10-23T18:44:11.183Z,26.80
2022-10-23T18:46:38.058Z,26.40
2022-10-23T18:49:05.091Z,26.67
2022-10-23T18:51:35.225Z,27.35
2022-10-23T18:54:09.455Z,28.15
2022-10-23T18:56:38.248Z,31.42
2022-10-23T18:59:09.687Z,44.05
2022-10-23T19:01:36.949Z,39.83
2022-10-23T19:04:05.472Z,34.35
2022-10-23T19:06:35.688Z,36.33
2022-10-23T19:09:02.851Z,37.45
2022-10-23T19:11:29.955Z,39.22
2022-10-23T19:13:56.853Z,35.95
2022-10-23T19:16:41.828Z,36.45
2022-10-23T19:19:21.945Z,35.20
2022-10-23T19:21:49.982Z,32.80
2022-10-23T19:24:24.283Z,32.65
2022-10-23T19:26:51.512Z,33.50
2022-10-23T19:29:22.059Z,34.60
2022-10-23T19:31:49.480Z,34.72
2022-10-23T19:34:22.567Z,36.10
2022-10-23T19:36:51.475Z,34.03
2022-10-23T19:39:19.064Z,34.35
2022-10-23T19:41:46.679Z,34.97
2022-10-23T19:44:14.888Z,38.85
2022-10-23T19:46:41.742Z,32.78
2022-10-23T19:49:09.062Z,31.35
2022-10-23T19:51:36.669Z,32.28
2022-10-23T19:54:04.383Z,30.85
2022-10-23T19:56:31.237Z,31.60
2022-10-23T19:58:58.055Z,33.78
2022-10-23T20:01:26.067Z,31.33
2022-10-23T20:03:54.796Z,32.25
2022-10-23T20:06:26.055Z,31.85
2022-10-23T20:08:53.185Z,31.92
2022-10-23T20:11:28.192Z,32.13
2022-10-23T20:13:55.757Z,32.33
2022-10-23T20:16:30.230Z,30.35
2022-10-23T20:18:58.270Z,32.13
2022-10-23T20:21:25.575Z,32.88
2022-10-23T20:23:52.479Z,32.35
2022-10-23T20:26:21.927Z,32.60
2022-10-23T20:28:52.520Z,33.90
2022-10-23T20:31:24.329Z,34.63
2022-10-23T20:33:52.032Z,36.05
2022-10-23T20:36:33.685Z,37.20
2022-10-23T20:39:05.428Z,38.05
2022-10-23T20:41:33.791Z,37.50
2022-10-23T20:44:00.856Z,36.55
2022-10-23T20:46:27.866Z,36.88
2022-10-23T20:48:54.807Z,34.65
2022-10-23T20:51:24.452Z,35.10
2022-10-23T20:53:53.224Z,33.83
2022-10-23T20:56:33.145Z,32.63
2022-10-23T20:59:09.708Z,33.10
2022-10-23T21:01:39.660Z,31.60
2022-10-23T21:04:06.873Z,31.42
2022-10-23T21:06:45.663Z,30.23
2022-10-23T21:09:13.244Z,29.73
2022-10-23T21:11:40.155Z,26.67
2022-10-23T21:14:07.060Z,24.58
2022-10-23T21:16:44.251Z,29.75
2022-10-23T21:19:13.792Z,28.70
2022-10-23T21:21:40.654Z,32.67
2022-10-23T21:24:12.857Z,33.50
2022-10-23T21:26:39.696Z,36.25
2022-10-23T21:29:17.952Z,35.25
2022-10-23T21:31:51.456Z,33.47
2022-10-23T21:34:18.301Z,34.60
2022-10-23T21:37:10.808Z,30.25
2022-10-23T21:39:34.242Z,27.38
2022-10-23T21:42:01.109Z,23.85
2022-10-23T21:44:27.944Z,22.27
2022-10-23T21:46:55.313Z,20.07
2022-10-23T21:49:22.247Z,20.33
2022-10-23T21:51:49.157Z,20.40
2022-10-23T21:54:15.986Z,20.97
2022-10-23T21:56:45.717Z,19.77
2022-10-23T21:59:16.676Z,19.73
2022-10-23T22:01:46.099Z,20.67
2022-10-23T22:04:15.375Z,19.58
2022-10-23T22:06:44.320Z,21.63
2022-10-23T22:09:14.843Z,21.85
2022-10-23T22:11:41.987Z,21.38
2022-10-23T22:14:08.872Z,20.57
2022-10-23T22:16:35.776Z,20.08
2022-10-23T22:19:03.130Z,21.77
2022-10-23T22:21:31.793Z,21.02
2022-10-23T22:24:00.755Z,21.63
2022-10-23T22:26:40.861Z,21.47
2022-10-23T22:29:15.205Z,20.83
2022-10-23T22:31:45.790Z,21.60
2022-10-23T22:34:28.719Z,19.90
2022-10-23T22:37:12.104Z,21.27
2022-10-23T22:39:39.551Z,19.75
2022-10-23T22:42:06.422Z,20.83
2022-10-23T22:44:33.302Z,19.25
2022-10-23T22:47:00.180Z,21.10
2022-10-23T22:49:27.004Z,19.83
2022-10-23T22:51:53.819Z,20.40
2022-10-23T22:54:20.679Z,19.63
2022-10-23T22:56:47.570Z,21.40
2022-10-23T22:59:14.453Z,19.38
2022-10-23T23:01:46.231Z,19.90
2022-10-23T23:04:36.743Z,20.17
2022-10-23T23:07:03.961Z,18.83
2022-10-23T23:09:30.886Z,18.45
2022-10-23T23:11:57.756Z,19.15
2022-10-23T23:14:24.772Z,19.93
2022-10-23T23:16:52.886Z,18.98
2022-10-23T23:19:20.107Z,19.33
2022-10-23T23:21:47.052Z,18.77
2022-10-23T23:24:14.639Z,20.08
2022-10-23T23:26:41.496Z,19.50
2022-10-23T23:29:08.335Z,19.43
2022-10-23T23:31:35.161Z,18.60
2022-10-23T23:34:02.017Z,18.05
2022-10-23T23:36:29.204Z,17.67
2022-10-23T23:38:58.010Z,17.80
2022-10-23T23:41:26.724Z,17.15
2022-10-23T23:43:56.668Z,17.70
2022-10-23T23:46:24.060Z,17.40
2022-10-23T23:48:50.971Z,16.20
2022-10-23T23:51:21.809Z,16.65
2022-10-23T23:53:50.319Z,17.30
2022-10-23T23:56:17.929Z,16.45
2022-10-23T23:58:45.187Z,15.85
